Time,TemperatureF,DewpointF,PressureIn,WindDirection,WindDirectionDegrees,WindSpeedMPH,WindSpeedGustMPH,Humidity,HourlyPrecipIn,Conditions,Clouds,dailyrainin,SoftwareType,DateUTC
2013-06-25 00:00:00,73.2,46.1,29.91,North,0,0.0,2.0,38,0.00,,---,0.00,VWS V14.01,2013-06-25 04:00:00,
2013-06-25 00:01:00,70.6,44.5,29.92,North,353,0.0,3.0,39,0.00,,---,0.00,VWS V14.01,2013-06-25 04:01:00,
2013-06-25 00:06:00,70.4,43.6,29.93,North,353,2.0,3.0,38,0.00,,---,0.00,VWS V14.01,2013-06-25 04:06:00,
2013-06-25 00:11:00,70.4,43.6,29.93,WNW,303,1.0,4.0,38,0.00,,---,0.00,VWS V14.01,2013-06-25 04:11:00,
2013-06-25 00:17:00,70.4,43.6,29.93,WNW,303,0.0,4.0,38,0.00,,---,0.00,VWS V14.01,2013-06-25 04:17:00,
2013-06-25 00:22:00,70.6,43.8,29.93,NW,322,4.0,4.0,38,0.00,,---,0.00,VWS V14.01,2013-06-25 04:22:00,
2013-06-25 00:27:00,70.6,43.8,29.93,WNW,295,0.0,6.0,38,0.00,,---,0.00,VWS V14.01,2013-06-25 04:27:00,
2013-06-25 00:30:00,71.8,44.8,29.92,North,0,0.0,2.0,38,0.00,,---,0.00,VWS V14.01,2013-06-25 04:30:00,
2013-06-25 00:32:00,70.4,43.6,29.94,WNW,295,1.0,6.0,38,0.00,,---,0.00,VWS V14.01,2013-06-25 04:32:00,
2013-06-25 00:37:00,70.4,44.3,29.94,WNW,288,1.0,5.0,39,0.00,,---,0.00,VWS V14.01,2013-06-25 04:37:00,
2013-06-25 00:42:00,70.3,44.2,29.94,WNW,285,1.0,5.0,39,0.00,,---,0.00,VWS V14.01,2013-06-25 04:42:00,
2013-06-25 00:47:00,70.1,44.0,29.93,WNW,285,0.0,5.0,39,0.00,,---,0.00,VWS V14.01,2013-06-25 04:47:00,
2013-06-25 00:52:00,70.1,44.0,29.93,WNW,285,1.0,5.0,39,0.00,,---,0.00,VWS V14.01,2013-06-25 04:52:00,
2013-06-25 00:57:00,69.9,43.8,29.93,WNW,285,1.0,5.0,39,0.00,,---,0.00,VWS V14.01,2013-06-25 04:57:00,
2013-06-25 01:00:00,70.4,44.3,29.93,North,353,0.0,3.0,39,0.00,,---,0.00,VWS V14.01,2013-06-25 05:00:00,
2013-06-25 01:02:00,69.8,43.8,29.93,WNW,285,1.0,5.0,39,0.00,,---,0.00,VWS V14.01,2013-06-25 05:02:00,
2013-06-25 01:07:00,69.6,43.6,29.93,WNW,285,2.0,3.0,39,0.00,,---,0.00,VWS V14.01,2013-06-25 05:07:00,
2013-06-25 01:12:00,69.6,43.6,29.93,West,281,0.0,3.0,39,0.00,,---,0.00,VWS V14.01,2013-06-25 05:12:00,
2013-06-25 01:17:00,69.4,43.4,29.92,West,281,0.0,3.0,39,0.00,,---,0.00,VWS V14.01,2013-06-25 05:17:00,
2013-06-25 01:22:00,69.4,43.4,29.92,West,281,0.0,3.0,39,0.00,,---,0.00,VWS V14.01,2013-06-25 05:22:00,
2013-06-25 01:27:00,69.3,43.3,29.92,West,281,0.0,3.0,39,0.00,,---,0.00,VWS V14.01,2013-06-25 05:27:00,
2013-06-25 01:30:00,70.4,43.6,29.94,WNW,295,2.0,6.0,38,0.00,,---,0.00,VWS V14.01,2013-06-25 05:30:00,
2013-06-25 01:32:00,69.3,43.3,29.92,West,281,0.0,3.0,39,0.00,,---,0.00,VWS V14.01,2013-06-25 05:32:00,
2013-06-25 01:37:00,69.3,43.3,29.92,NW,307,0.0,3.0,39,0.00,,---,0.00,VWS V14.01,2013-06-25 05:37:00,
2013-06-25 01:42:00,69.1,43.1,29.92,NW,307,0.0,3.0,39,0.00,,---,0.00,VWS V14.01,2013-06-25 05:42:00,
2013-06-25 01:47:00,69.1,43.1,29.92,NW,307,0.0,3.0,39,0.00,,---,0.00,VWS V14.01,2013-06-25 05:47:00,
2013-06-25 01:52:00,69.1,43.1,29.92,NW,307,1.0,3.0,39,0.00,,---,0.00,VWS V14.01,2013-06-25 05:52:00,
2013-06-25 01:57:00,68.9,43.0,29.92,NW,307,0.0,3.0,39,0.00,,---,0.00,VWS V14.01,2013-06-25 05:57:00,
2013-06-25 02:00:00,69.8,43.8,29.93,WNW,285,1.0,5.0,39,0.00,,---,0.00,VWS V14.01,2013-06-25 06:00:00,
2013-06-25 02:02:00,68.9,43.0,29.92,NW,307,0.0,3.0,39,0.00,,---,0.00,VWS V14.01,2013-06-25 06:02:00,
2013-06-25 02:07:00,68.8,42.9,29.92,NW,307,0.0,0.0,39,0.00,,---,0.00,VWS V14.01,2013-06-25 06:07:00,
2013-06-25 02:12:00,68.8,42.9,29.92,NW,307,0.0,0.0,39,0.00,,---,0.00,VWS V14.01,2013-06-25 06:12:00,
2013-06-25 02:17:00,68.6,42.7,29.91,NW,307,0.0,0.0,39,0.00,,---,0.00,VWS V14.01,2013-06-25 06:17:00,
2013-06-25 02:22:00,68.4,42.5,29.91,NW,307,0.0,0.0,39,0.00,,---,0.00,VWS V14.01,2013-06-25 06:22:00,
2013-06-25 02:27:00,68.3,42.4,29.91,NW,307,0.0,0.0,39,0.00,,---,0.00,VWS V14.01,2013-06-25 06:27:00,
2013-06-25 02:30:00,69.3,43.3,29.92,West,281,1.0,3.0,39,0.00,,---,0.00,VWS V14.01,2013-06-25 06:30:00,
2013-06-25 02:32:00,68.3,42.4,29.91,NW,307,0.0,0.0,39,0.00,,---,0.00,VWS V14.01,2013-06-25 06:32:00,
2013-06-25 02:37:00,68.1,42.2,29.91,NW,307,0.0,0.0,39,0.00,,---,0.00,VWS V14.01,2013-06-25 06:37:00,
2013-06-25 02:42:00,67.9,42.1,29.91,NW,307,0.0,0.0,39,0.00,,---,0.00,VWS V14.01,2013-06-25 06:42:00,
2013-06-25 02:47:00,67.8,42.0,29.90,NW,307,0.0,0.0,39,0.00,,---,0.00,VWS V14.01,2013-06-25 06:47:00,
2013-06-25 02:52:00,67.4,41.6,29.90,NW,307,0.0,1.0,39,0.00,,---,0.00,VWS V14.01,2013-06-25 06:52:00,
2013-06-25 02:57:00,67.3,42.2,29.90,NW,307,0.0,1.0,40,0.00,,---,0.00,VWS V14.01,2013-06-25 06:57:00,
2013-06-25 03:00:00,68.9,43.0,29.92,NW,307,0.0,3.0,39,0.00,,---,0.00,VWS V14.01,2013-06-25 07:00:00,
2013-06-25 03:02:00,67.1,42.0,29.91,NW,307,0.0,1.0,40,0.00,,---,0.00,VWS V14.01,2013-06-25 07:02:00,
2013-06-25 03:07:00,67.1,42.0,29.91,NW,307,0.0,0.0,40,0.00,,---,0.00,VWS V14.01,2013-06-25 07:07:00,
2013-06-25 03:12:00,66.9,41.8,29.91,NW,307,0.0,0.0,40,0.00,,---,0.00,VWS V14.01,2013-06-25 07:12:00,
2013-06-25 03:17:00,66.9,41.8,29.91,NW,307,0.0,0.0,40,0.00,,---,0.00,VWS V14.01,2013-06-25 07:17:00,
2013-06-25 03:22:00,66.9,41.8,29.91,NW,307,0.0,0.0,40,0.00,,---,0.00,VWS V14.01,2013-06-25 07:22:00,
2013-06-25 03:27:00,67.1,42.0,29.91,NW,307,0.0,0.0,40,0.00,,---,0.00,VWS V14.01,2013-06-25 07:27:00,
2013-06-25 03:30:00,68.3,42.4,29.91,NW,307,0.0,0.0,39,0.00,,---,0.00,VWS V14.01,2013-06-25 07:30:00,
2013-06-25 03:32:00,67.1,42.0,29.90,NW,307,0.0,1.0,40,0.00,,---,0.00,VWS V14.01,2013-06-25 07:32:00,
2013-06-25 03:37:00,66.9,41.8,29.90,NW,307,0.0,0.0,40,0.00,,---,0.00,VWS V14.01,2013-06-25 07:37:00,
2013-06-25 03:42:00,66.9,41.8,29.90,NW,307,0.0,0.0,40,0.00,,---,0.00,VWS V14.01,2013-06-25 07:42:00,
2013-06-25 03:47:00,66.9,41.8,29.89,NW,307,0.0,0.0,40,0.00,,---,0.00,VWS V14.01,2013-06-25 07:47:00,
2013-06-25 03:52:00,66.9,41.8,29.89,NW,307,0.0,0.0,40,0.00,,---,0.00,VWS V14.01,2013-06-25 07:52:00,
2013-06-25 03:57:00,66.9,41.8,29.89,NW,307,0.0,0.0,40,0.00,,---,0.00,VWS V14.01,2013-06-25 07:57:00,
2013-06-25 04:00:00,67.1,42.0,29.91,NW,307,0.0,1.0,40,0.00,,---,0.00,VWS V14.01,2013-06-25 08:00:00,
2013-06-25 04:02:00,66.9,41.8,29.89,NW,307,0.0,0.0,40,0.00,,---,0.00,VWS V14.01,2013-06-25 08:02:00,
2013-06-25 04:07:00,67.1,42.0,29.89,NW,307,0.0,0.0,40,0.00,,---,0.00,VWS V14.01,2013-06-25 08:07:00,
2013-06-25 04:12:00,66.9,41.8,29.89,NW,307,0.0,0.0,40,0.00,,---,0.00,VWS V14.01,2013-06-25 08:12:00,
2013-06-25 04:17:00,67.1,42.0,29.89,NW,307,0.0,0.0,40,0.00,,---,0.00,VWS V14.01,2013-06-25 08:17:00,
2013-06-25 04:22:00,66.9,41.8,29.89,NW,307,0.0,0.0,40,0.00,,---,0.00,VWS V14.01,2013-06-25 08:22:00,
2013-06-25 04:27:00,66.9,41.8,29.89,NW,307,0.0,0.0,40,0.00,,---,0.00,VWS V14.01,2013-06-25 08:27:00,
2013-06-25 04:30:00,67.1,42.0,29.90,NW,307,0.0,1.0,40,0.00,,---,0.00,VWS V14.01,2013-06-25 08:30:00,
2013-06-25 04:32:00,66.9,41.8,29.89,NW,307,0.0,0.0,40,0.00,,---,0.00,VWS V14.01,2013-06-25 08:32:00,
2013-06-25 04:37:00,66.9,41.8,29.89,NW,307,0.0,0.0,40,0.00,,---,0.00,VWS V14.01,2013-06-25 08:37:00,
2013-06-25 04:42:00,66.9,41.8,29.89,NW,307,0.0,0.0,40,0.00,,---,0.00,VWS V14.01,2013-06-25 08:42:00,
2013-06-25 04:47:00,66.9,41.8,29.89,NW,307,0.0,0.0,40,0.00,,---,0.00,VWS V14.01,2013-06-25 08:47:00,
2013-06-25 04:52:00,67.1,42.0,29.89,NW,307,0.0,0.0,40,0.00,,---,0.00,VWS V14.01,2013-06-25 08:52:00,
2013-06-25 04:57:00,67.3,42.2,29.89,NW,307,0.0,0.0,40,0.00,,---,0.00,VWS V14.01,2013-06-25 08:57:00,
2013-06-25 05:00:00,66.9,41.8,29.89,NW,307,0.0,0.0,40,0.00,,---,0.00,VWS V14.01,2013-06-25 09:00:00,
2013-06-25 05:02:00,66.9,41.8,29.89,NW,307,0.0,0.0,40,0.00,,---,0.00,VWS V14.01,2013-06-25 09:02:00,
2013-06-25 05:07:00,66.9,41.8,29.89,NW,307,0.0,0.0,40,0.00,,---,0.00,VWS V14.01,2013-06-25 09:07:00,
2013-06-25 05:12:00,66.9,41.8,29.89,NW,307,0.0,0.0,40,0.00,,---,0.00,VWS V14.01,2013-06-25 09:12:00,
2013-06-25 05:17:00,66.9,41.8,29.89,NW,307,0.0,0.0,40,0.00,,---,0.00,VWS V14.01,2013-06-25 09:17:00,
2013-06-25 05:22:00,66.9,41.8,29.89,NW,307,0.0,0.0,40,0.00,,---,0.00,VWS V14.01,2013-06-25 09:22:00,
2013-06-25 05:27:00,67.1,42.0,29.89,NW,307,0.0,0.0,40,0.00,,---,0.00,VWS V14.01,2013-06-25 09:27:00,
2013-06-25 05:30:00,66.9,41.8,29.89,NW,307,0.0,0.0,40,0.00,,---,0.00,VWS V14.01,2013-06-25 09:30:00,
2013-06-25 05:32:00,67.1,42.0,29.89,NW,307,0.0,0.0,40,0.00,,---,0.00,VWS V14.01,2013-06-25 09:32:00,
2013-06-25 05:37:00,67.1,42.0,29.89,NW,307,0.0,0.0,40,0.00,,---,0.00,VWS V14.01,2013-06-25 09:37:00,
2013-06-25 05:42:00,67.3,42.2,29.89,NW,307,0.0,0.0,40,0.00,,---,0.00,VWS V14.01,2013-06-25 09:42:00,
2013-06-25 05:47:00,67.1,42.0,29.89,NW,307,0.0,0.0,40,0.00,,---,0.00,VWS V14.01,2013-06-25 09:47:00,
2013-06-25 05:52:00,67.1,42.0,29.89,NW,307,0.0,0.0,40,0.00,,---,0.00,VWS V14.01,2013-06-25 09:52:00,
2013-06-25 05:57:00,67.1,42.0,29.89,NW,307,0.0,0.0,40,0.00,,---,0.00,VWS V14.01,2013-06-25 09:57:00,
2013-06-25 06:00:00,66.9,41.8,29.89,NW,307,0.0,0.0,40,0.00,,---,0.00,VWS V14.01,2013-06-25 10:00:00,
2013-06-25 06:02:00,67.1,42.0,29.89,NW,307,0.0,2.0,40,0.00,,---,0.00,VWS V14.01,2013-06-25 10:02:00,
2013-06-25 06:07:00,67.3,42.2,29.89,NW,307,0.0,1.0,40,0.00,,---,0.00,VWS V14.01,2013-06-25 10:07:00,
2013-06-25 06:12:00,67.4,42.3,29.89,NW,307,0.0,1.0,40,0.00,,---,0.00,VWS V14.01,2013-06-25 10:12:00,
2013-06-25 06:17:00,67.6,42.4,29.90,NW,307,0.0,2.0,40,0.00,,---,0.00,VWS V14.01,2013-06-25 10:17:00,
2013-06-25 06:22:00,67.6,42.4,29.90,NW,307,0.0,2.0,40,0.00,,---,0.00,VWS V14.01,2013-06-25 10:22:00,
2013-06-25 06:27:00,67.8,42.6,29.90,NW,307,0.0,2.0,40,0.00,,---,0.00,VWS V14.01,2013-06-25 10:27:00,
2013-06-25 06:30:00,67.1,42.0,29.89,NW,307,0.0,0.0,40,0.00,,---,0.00,VWS V14.01,2013-06-25 10:30:00,
2013-06-25 06:32:00,67.9,42.7,29.90,NW,307,0.0,2.0,40,0.00,,---,0.00,VWS V14.01,2013-06-25 10:32:00,
2013-06-25 06:37:00,68.1,42.9,29.90,NW,307,0.0,0.0,40,0.00,,---,0.00,VWS V14.01,2013-06-25 10:37:00,
2013-06-25 06:42:00,68.4,43.2,29.90,NW,307,0.0,0.0,40,0.00,,---,0.00,VWS V14.01,2013-06-25 10:42:00,
2013-06-25 06:47:00,68.6,43.3,29.90,NW,307,0.0,1.0,40,0.00,,---,0.00,VWS V14.01,2013-06-25 10:47:00,
2013-06-25 06:52:00,68.8,43.5,29.90,NW,307,0.0,1.0,40,0.00,,---,0.00,VWS V14.01,2013-06-25 10:52:00,
2013-06-25 06:57:00,69.1,43.8,29.90,NW,307,0.0,1.0,40,0.00,,---,0.00,VWS V14.01,2013-06-25 10:57:00,
2013-06-25 07:00:00,67.1,42.0,29.89,NW,307,0.0,2.0,40,0.00,,---,0.00,VWS V14.01,2013-06-25 11:00:00,
2013-06-25 07:02:00,69.3,44.0,29.90,WNW,284,0.0,1.0,40,0.00,,---,0.00,VWS V14.01,2013-06-25 11:02:00,
2013-06-25 07:07:00,69.6,43.6,29.90,West,262,0.0,2.0,39,0.00,,---,0.00,VWS V14.01,2013-06-25 11:07:00,
2013-06-25 07:12:00,69.9,43.8,29.90,West,262,0.0,2.0,39,0.00,,---,0.00,VWS V14.01,2013-06-25 11:12:00,
2013-06-25 07:17:00,70.3,44.2,29.89,West,262,0.0,2.0,39,0.00,,---,0.00,VWS V14.01,2013-06-25 11:17:00,
2013-06-25 07:22:00,70.8,44.6,29.89,West,262,0.0,2.0,39,0.00,,---,0.00,VWS V14.01,2013-06-25 11:22:00,
2013-06-25 07:27:00,71.3,45.1,29.89,West,262,0.0,2.0,39,0.00,,---,0.00,VWS V14.01,2013-06-25 11:27:00,
2013-06-25 07:30:00,67.9,42.7,29.90,NW,307,0.0,2.0,40,0.00,,---,0.00,VWS V14.01,2013-06-25 11:30:00,
2013-06-25 07:32:00,71.8,45.5,29.89,West,271,1.0,2.0,39,0.00,,---,0.00,VWS V14.01,2013-06-25 11:32:00,
2013-06-25 07:37:00,72.3,46.0,29.89,West,272,1.0,2.0,39,0.00,,---,0.00,VWS V14.01,2013-06-25 11:37:00,
2013-06-25 07:42:00,72.3,46.0,29.89,West,270,1.0,3.0,39,0.00,,---,0.00,VWS V14.01,2013-06-25 11:42:00,
2013-06-25 07:47:00,72.8,45.7,29.89,West,274,0.0,3.0,38,0.00,,---,0.00,VWS V14.01,2013-06-25 11:47:00,
2013-06-25 07:52:00,73.5,46.4,29.89,West,274,0.0,3.0,38,0.00,,---,0.00,VWS V14.01,2013-06-25 11:52:00,
2013-06-25 07:57:00,74.0,46.8,29.89,West,274,0.0,3.0,38,0.00,,---,0.00,VWS V14.01,2013-06-25 11:57:00,
2013-06-25 08:00:00,69.3,44.0,29.90,WNW,284,0.0,1.0,40,0.00,,---,0.00,VWS V14.01,2013-06-25 12:00:00,
2013-06-25 08:02:00,74.6,47.3,29.88,West,278,0.0,0.0,38,0.00,,---,0.00,VWS V14.01,2013-06-25 12:02:00,
2013-06-25 08:07:00,74.9,47.6,29.88,WSW,252,0.0,2.0,38,0.00,,---,0.00,VWS V14.01,2013-06-25 12:07:00,
2013-06-25 08:12:00,75.4,48.0,29.88,West,260,2.0,3.0,38,0.00,,---,0.00,VWS V14.01,2013-06-25 12:12:00,
2013-06-25 08:17:00,75.8,48.4,29.89,West,263,0.0,3.0,38,0.00,,---,0.00,VWS V14.01,2013-06-25 12:17:00,
2013-06-25 08:22:00,76.1,48.7,29.89,West,265,1.0,3.0,38,0.00,,---,0.00,VWS V14.01,2013-06-25 12:22:00,
2013-06-25 08:27:00,76.5,48.3,29.89,West,271,0.0,3.0,37,0.00,,---,0.00,VWS V14.01,2013-06-25 12:27:00,
2013-06-25 08:30:00,71.8,45.5,29.89,West,271,1.0,2.0,39,0.00,,---,0.00,VWS V14.01,2013-06-25 12:30:00,
2013-06-25 08:32:00,76.7,48.5,29.89,West,263,1.0,5.0,37,0.00,,---,0.00,VWS V14.01,2013-06-25 12:32:00,
2013-06-25 08:37:00,77.0,48.8,29.89,WSW,253,3.0,4.0,37,0.00,,---,0.00,VWS V14.01,2013-06-25 12:37:00,
2013-06-25 08:42:00,77.0,48.8,29.89,WSW,240,5.0,6.0,37,0.00,,---,0.00,VWS V14.01,2013-06-25 12:42:00,
2013-06-25 08:47:00,77.0,48.8,29.88,WSW,253,2.0,6.0,37,0.00,,---,0.00,VWS V14.01,2013-06-25 12:47:00,
2013-06-25 08:52:00,77.2,48.9,29.88,WSW,255,0.0,6.0,37,0.00,,---,0.00,VWS V14.01,2013-06-25 12:52:00,
2013-06-25 08:57:00,77.6,49.3,29.88,WSW,246,3.0,6.0,37,0.00,,---,0.00,VWS V14.01,2013-06-25 12:57:00,
2013-06-25 09:00:00,74.6,47.3,29.88,West,278,0.0,3.0,38,0.00,,---,0.00,VWS V14.01,2013-06-25 13:00:00,
2013-06-25 09:02:00,77.6,49.3,29.88,SW,218,4.0,8.0,37,0.00,,---,0.00,VWS V14.01,2013-06-25 13:02:00,
2013-06-25 09:07:00,77.2,48.9,29.88,SW,228,7.0,10.0,37,0.00,,---,0.00,VWS V14.01,2013-06-25 13:07:00,
2013-06-25 09:12:00,77.4,49.1,29.88,SW,235,1.0,10.0,37,0.00,,---,0.00,VWS V14.01,2013-06-25 13:12:00,
2013-06-25 09:17:00,77.9,49.6,29.87,SW,236,2.0,10.0,37,0.00,,---,0.00,VWS V14.01,2013-06-25 13:17:00,
2013-06-25 09:22:00,78.6,50.2,29.87,NW,314,0.0,10.0,37,0.00,,---,0.00,VWS V14.01,2013-06-25 13:22:00,
2013-06-25 09:27:00,79.4,50.9,29.87,SW,227,1.0,10.0,37,0.00,,---,0.00,VWS V14.01,2013-06-25 13:27:00,
2013-06-25 09:30:00,76.7,48.5,29.89,West,263,1.0,5.0,37,0.00,,---,0.00,VWS V14.01,2013-06-25 13:30:00,
2013-06-25 09:32:00,79.8,51.2,29.88,SW,224,3.0,3.0,37,0.00,,---,0.00,VWS V14.01,2013-06-25 13:32:00,
2013-06-25 09:37:00,79.8,51.2,29.88,WSW,238,4.0,9.0,37,0.00,,---,0.00,VWS V14.01,2013-06-25 13:37:00,
2013-06-25 09:42:00,79.8,51.2,29.88,SW,221,6.0,9.0,37,0.00,,---,0.00,VWS V14.01,2013-06-25 13:42:00,
2013-06-25 09:47:00,79.8,51.2,29.88,SW,233,2.0,9.0,37,0.00,,---,0.00,VWS V14.01,2013-06-25 13:47:00,
2013-06-25 09:52:00,80.1,51.5,29.88,SW,216,4.0,9.0,37,0.00,,---,0.00,VWS V14.01,2013-06-25 13:52:00,
2013-06-25 09:57:00,80.3,51.7,29.88,WSW,237,2.0,12.0,37,0.00,,---,0.00,VWS V14.01,2013-06-25 13:57:00,
2013-06-25 10:00:00,77.6,49.3,29.88,SSW,196,9.0,9.0,37,0.00,,---,0.00,VWS V14.01,2013-06-25 14:00:00,
2013-06-25 10:02:00,80.9,52.2,29.88,WNW,288,2.0,3.0,37,0.00,,---,0.00,VWS V14.01,2013-06-25 14:02:00,
2013-06-25 10:07:00,81.1,52.4,29.88,SSW,212,7.0,8.0,37,0.00,,---,0.00,VWS V14.01,2013-06-25 14:07:00,
2013-06-25 10:12:00,80.5,51.9,29.88,SW,224,5.0,10.0,37,0.00,,---,0.00,VWS V14.01,2013-06-25 14:12:00,
2013-06-25 10:17:00,81.1,52.4,29.88,West,262,3.0,10.0,37,0.00,,---,0.00,VWS V14.01,2013-06-25 14:17:00,
2013-06-25 10:22:00,81.8,53.0,29.88,SW,230,4.0,10.0,37,0.00,,---,0.00,VWS V14.01,2013-06-25 14:22:00,
2013-06-25 10:27:00,81.6,52.8,29.88,SSW,202,2.0,11.0,37,0.00,,---,0.00,VWS V14.01,2013-06-25 14:27:00,
2013-06-25 10:30:00,79.8,51.2,29.88,SW,224,2.0,10.0,37,0.00,,---,0.00,VWS V14.01,2013-06-25 14:30:00,
2013-06-25 10:32:00,82.0,52.4,29.88,SW,235,3.0,3.0,36,0.00,,---,0.00,VWS V14.01,2013-06-25 14:32:00,
2013-06-25 10:37:00,82.4,52.8,29.88,West,265,3.0,7.0,36,0.00,,---,0.00,VWS V14.01,2013-06-25 14:37:00,
2013-06-25 10:42:00,82.6,53.0,29.88,SW,217,5.0,7.0,36,0.00,,---,0.00,VWS V14.01,2013-06-25 14:42:00,
2013-06-25 10:47:00,82.4,52.8,29.88,WSW,256,1.0,7.0,36,0.00,,---,0.00,VWS V14.01,2013-06-25 14:47:00,
2013-06-25 10:52:00,82.8,53.2,29.88,WNW,283,3.0,7.0,36,0.00,,---,0.00,VWS V14.01,2013-06-25 14:52:00,
2013-06-25 10:57:00,83.6,53.8,29.88,WNW,295,4.0,7.0,36,0.00,,---,0.00,VWS V14.01,2013-06-25 14:57:00,
2013-06-25 11:00:00,80.7,52.0,29.88,WNW,288,3.0,12.0,37,0.00,,---,0.00,VWS V14.01,2013-06-25 15:00:00,
2013-06-25 11:02:00,84.3,54.5,29.88,NW,309,2.0,2.0,36,0.00,,---,0.00,VWS V14.01,2013-06-25 15:02:00,
2013-06-25 11:07:00,84.7,54.8,29.88,NW,310,1.0,5.0,36,0.00,,---,0.00,VWS V14.01,2013-06-25 15:07:00,
2013-06-25 11:12:00,85.1,55.2,29.88,WSW,257,0.0,5.0,36,0.00,,---,0.00,VWS V14.01,2013-06-25 15:12:00,
2013-06-25 11:17:00,85.1,55.2,29.88,SW,234,3.0,7.0,36,0.00,,---,0.00,VWS V14.01,2013-06-25 15:17:00,
2013-06-25 11:22:00,85.5,55.5,29.88,West,266,2.0,7.0,36,0.00,,---,0.00,VWS V14.01,2013-06-25 15:22:00,
2013-06-25 11:27:00,85.7,55.7,29.88,West,262,3.0,7.0,36,0.00,,---,0.00,VWS V14.01,2013-06-25 15:27:00,
2013-06-25 11:30:00,82.0,52.4,29.88,SW,234,3.0,11.0,36,0.00,,---,0.00,VWS V14.01,2013-06-25 15:30:00,
2013-06-25 11:32:00,85.9,55.9,29.87,WNW,285,0.0,1.0,36,0.00,,---,0.00,VWS V14.01,2013-06-25 15:32:00,
2013-06-25 11:37:00,86.1,56.0,29.87,WSW,237,3.0,5.0,36,0.00,,---,0.00,VWS V14.01,2013-06-25 15:37:00,
2013-06-25 11:42:00,86.3,56.2,29.87,WNW,302,2.0,5.0,36,0.00,,---,0.00,VWS V14.01,2013-06-25 15:42:00,
2013-06-25 11:47:00,85.9,55.9,29.87,West,278,2.0,6.0,36,0.00,,---,0.00,VWS V14.01,2013-06-25 15:47:00,
2013-06-25 11:52:00,85.9,55.9,29.87,West,271,3.0,6.0,36,0.00,,---,0.00,VWS V14.01,2013-06-25 15:52:00,
2013-06-25 11:57:00,86.7,56.6,29.87,West,281,2.0,6.0,36,0.00,,---,0.00,VWS V14.01,2013-06-25 15:57:00,
2013-06-25 12:00:00,84.3,54.5,29.88,NW,309,2.0,7.0,36,0.00,,---,0.00,VWS V14.01,2013-06-25 16:00:00,
2013-06-25 12:02:00,87.2,57.0,29.87,SSW,205,3.0,4.0,36,0.00,,---,0.00,VWS V14.01,2013-06-25 16:02:00,
2013-06-25 12:07:00,87.6,57.4,29.87,South,171,6.0,6.0,36,0.00,,---,0.00,VWS V14.01,2013-06-25 16:07:00,
2013-06-25 12:12:00,87.2,57.0,29.87,SSW,208,4.0,7.0,36,0.00,,---,0.00,VWS V14.01,2013-06-25 16:12:00,
2013-06-25 12:17:00,87.4,57.2,29.86,SSW,198,6.0,7.0,36,0.00,,---,0.00,VWS V14.01,2013-06-25 16:17:00,
2013-06-25 12:22:00,87.0,56.8,29.86,WNW,287,2.0,11.0,36,0.00,,---,0.00,VWS V14.01,2013-06-25 16:22:00,
2013-06-25 12:27:00,87.0,56.8,29.86,West,267,1.0,11.0,36,0.00,,---,0.00,VWS V14.01,2013-06-25 16:27:00,
2013-06-25 12:30:00,85.9,55.9,29.87,WNW,285,0.0,7.0,36,0.00,,---,0.00,VWS V14.01,2013-06-25 16:30:00,
2013-06-25 12:32:00,87.6,57.4,29.86,SSW,206,2.0,4.0,36,0.00,,---,0.00,VWS V14.01,2013-06-25 16:32:00,
2013-06-25 12:37:00,87.6,57.4,29.86,WSW,250,1.0,9.0,36,0.00,,---,0.00,VWS V14.01,2013-06-25 16:37:00,
2013-06-25 12:42:00,87.6,57.4,29.86,West,259,7.0,9.0,36,0.00,,---,0.00,VWS V14.01,2013-06-25 16:42:00,
2013-06-25 12:47:00,87.0,56.8,29.86,SW,226,9.0,11.0,36,0.00,,---,0.00,VWS V14.01,2013-06-25 16:47:00,
2013-06-25 12:52:00,86.3,56.2,29.86,SW,225,3.0,11.0,36,0.00,,---,0.00,VWS V14.01,2013-06-25 16:52:00,
2013-06-25 12:57:00,86.1,56.0,29.86,WNW,286,4.0,11.0,36,0.00,,---,0.00,VWS V14.01,2013-06-25 16:57:00,
2013-06-25 13:00:00,87.2,57.0,29.87,SSW,204,3.0,6.0,36,0.00,,---,0.00,VWS V14.01,2013-06-25 17:00:00,
2013-06-25 13:02:00,86.3,56.2,29.86,WSW,254,3.0,3.0,36,0.00,,---,0.00,VWS V14.01,2013-06-25 17:02:00,
2013-06-25 13:07:00,86.5,56.4,29.86,South,184,4.0,9.0,36,0.00,,---,0.00,VWS V14.01,2013-06-25 17:07:00,
2013-06-25 13:12:00,86.3,56.2,29.86,SSW,207,5.0,11.0,36,0.00,,---,0.00,VWS V14.01,2013-06-25 17:12:00,
2013-06-25 13:17:00,86.3,56.2,29.84,WSW,250,3.0,12.0,36,0.00,,---,0.00,VWS V14.01,2013-06-25 17:17:00,
2013-06-25 13:22:00,86.3,56.2,29.84,SW,226,7.0,14.0,36,0.00,,---,0.00,VWS V14.01,2013-06-25 17:22:00,
2013-06-25 13:27:00,85.9,55.9,29.84,WSW,254,4.0,14.0,36,0.00,,---,0.00,VWS V14.01,2013-06-25 17:27:00,
2013-06-25 13:30:00,87.4,57.2,29.86,SSW,203,4.0,11.0,36,0.00,,---,0.00,VWS V14.01,2013-06-25 17:30:00,
2013-06-25 13:32:00,85.7,55.7,29.84,SSW,204,7.0,7.0,36,0.00,,---,0.00,VWS V14.01,2013-06-25 17:32:00,
2013-06-25 13:37:00,85.9,55.9,29.84,SW,233,2.0,13.0,36,0.00,,---,0.00,VWS V14.01,2013-06-25 17:37:00,
2013-06-25 13:42:00,86.5,56.4,29.84,SW,224,4.0,13.0,36,0.00,,---,0.00,VWS V14.01,2013-06-25 17:42:00,
2013-06-25 13:47:00,86.5,56.4,29.83,SSE,166,5.0,13.0,36,0.00,,---,0.00,VWS V14.01,2013-06-25 17:47:00,
2013-06-25 13:52:00,86.5,56.4,29.83,SSW,207,6.0,13.0,36,0.00,,---,0.00,VWS V14.01,2013-06-25 17:52:00,
2013-06-25 13:57:00,86.5,55.6,29.83,SW,229,7.0,14.0,35,0.00,,---,0.00,VWS V14.01,2013-06-25 17:57:00,
2013-06-25 14:00:00,86.3,56.2,29.86,WSW,253,3.0,11.0,36,0.00,,---,0.00,VWS V14.01,2013-06-25 18:00:00,
2013-06-25 14:02:00,86.5,56.4,29.83,WSW,244,3.0,7.0,36,0.00,,---,0.00,VWS V14.01,2013-06-25 18:02:00,
2013-06-25 14:07:00,86.7,56.6,29.83,WSW,239,5.0,10.0,36,0.00,,---,0.00,VWS V14.01,2013-06-25 18:07:00,
2013-06-25 14:12:00,87.6,57.4,29.83,SSW,200,4.0,10.0,36,0.00,,---,0.00,VWS V14.01,2013-06-25 18:12:00,
2013-06-25 14:17:00,87.6,56.6,29.82,SSW,200,7.0,13.0,35,0.00,,---,0.00,VWS V14.01,2013-06-25 18:17:00,
2013-06-25 14:22:00,87.6,56.6,29.82,West,266,3.0,13.0,35,0.00,,---,0.00,VWS V14.01,2013-06-25 18:22:00,
2013-06-25 14:27:00,87.4,57.2,29.82,SSW,200,5.0,14.0,36,0.00,,---,0.00,VWS V14.01,2013-06-25 18:27:00,
2013-06-25 14:30:00,85.7,55.7,29.84,SW,233,5.0,14.0,36,0.00,,---,0.00,VWS V14.01,2013-06-25 18:30:00,
2013-06-25 14:32:00,87.6,57.4,29.82,WSW,242,10.0,10.0,36,0.00,,---,0.00,VWS V14.01,2013-06-25 18:32:00,
2013-06-25 14:37:00,87.4,57.2,29.82,SSW,201,5.0,12.0,36,0.00,,---,0.00,VWS V14.01,2013-06-25 18:37:00,
2013-06-25 14:42:00,86.7,56.6,29.82,WSW,255,2.0,14.0,36,0.00,,---,0.00,VWS V14.01,2013-06-25 18:42:00,
2013-06-25 14:47:00,87.2,57.0,29.81,South,169,5.0,14.0,36,0.00,,---,0.00,VWS V14.01,2013-06-25 18:47:00,
2013-06-25 14:52:00,87.4,57.2,29.81,SW,229,4.0,14.0,36,0.00,,---,0.00,VWS V14.01,2013-06-25 18:52:00,
2013-06-25 14:57:00,86.7,56.6,29.81,WNW,286,4.0,14.0,36,0.00,,---,0.00,VWS V14.01,2013-06-25 18:57:00,
2013-06-25 15:00:00,86.5,56.4,29.83,SSW,212,7.0,14.0,36,0.00,,---,0.00,VWS V14.01,2013-06-25 19:00:00,
2013-06-25 15:02:00,87.0,56.8,29.81,SSW,196,0.0,2.0,36,0.00,,---,0.00,VWS V14.01,2013-06-25 19:02:00,
2013-06-25 15:07:00,87.0,56.8,29.81,SW,230,3.0,10.0,36,0.00,,---,0.00,VWS V14.01,2013-06-25 19:07:00,
2013-06-25 15:12:00,87.0,56.8,29.81,SW,231,4.0,12.0,36,0.00,,---,0.00,VWS V14.01,2013-06-25 19:12:00,
2013-06-25 15:17:00,87.0,56.8,29.80,West,274,3.0,12.0,36,0.00,,---,0.00,VWS V14.01,2013-06-25 19:17:00,
2013-06-25 15:22:00,87.6,57.4,29.80,WSW,250,4.0,12.0,36,0.00,,---,0.00,VWS V14.01,2013-06-25 19:22:00,
2013-06-25 15:27:00,88.0,57.7,29.80,WSW,249,2.0,12.0,36,0.00,,---,0.00,VWS V14.01,2013-06-25 19:27:00,
2013-06-25 15:30:00,87.6,57.4,29.82,SW,227,6.0,14.0,36,0.00,,---,0.00,VWS V14.01,2013-06-25 19:30:00,
2013-06-25 15:32:00,88.4,57.3,29.79,WNW,298,5.0,6.0,35,0.00,,---,0.00,VWS V14.01,2013-06-25 19:32:00,
2013-06-25 15:37:00,88.6,58.2,29.79,SW,233,7.0,9.0,36,0.00,,---,0.00,VWS V14.01,2013-06-25 19:37:00,
2013-06-25 15:42:00,88.2,57.1,29.79,SW,227,5.0,9.0,35,0.00,,---,0.00,VWS V14.01,2013-06-25 19:42:00,
2013-06-25 15:47:00,87.6,56.6,29.78,SSW,209,3.0,12.0,35,0.00,,---,0.00,VWS V14.01,2013-06-25 19:47:00,
2013-06-25 15:52:00,87.8,57.5,29.78,SSW,206,6.0,12.0,36,0.00,,---,0.00,VWS V14.01,2013-06-25 19:52:00,
2013-06-25 15:57:00,86.5,56.4,29.78,SW,215,6.0,12.0,36,0.00,,---,0.00,VWS V14.01,2013-06-25 19:57:00,
2013-06-25 16:00:00,86.7,56.6,29.81,SSW,195,2.0,14.0,36,0.00,,---,0.00,VWS V14.01,2013-06-25 20:00:00,
2013-06-25 16:02:00,85.3,55.3,29.78,SSW,211,3.0,9.0,36,0.00,,---,0.00,VWS V14.01,2013-06-25 20:02:00,
2013-06-25 16:07:00,84.7,54.8,29.78,South,186,3.0,9.0,36,0.00,,---,0.00,VWS V14.01,2013-06-25 20:07:00,
2013-06-25 16:12:00,84.5,54.6,29.78,SSW,210,4.0,11.0,36,0.00,,---,0.00,VWS V14.01,2013-06-25 20:12:00,
2013-06-25 16:17:00,84.9,55.0,29.77,SW,233,2.0,11.0,36,0.00,,---,0.00,VWS V14.01,2013-06-25 20:17:00,
2013-06-25 16:22:00,85.5,55.5,29.77,WSW,255,5.0,11.0,36,0.00,,---,0.00,VWS V14.01,2013-06-25 20:22:00,
2013-06-25 16:27:00,85.9,55.9,29.77,WSW,240,7.0,11.0,36,0.00,,---,0.00,VWS V14.01,2013-06-25 20:27:00,
2013-06-25 16:30:00,88.4,58.1,29.79,WNW,295,2.0,12.0,36,0.00,,---,0.00,VWS V14.01,2013-06-25 20:30:00,
2013-06-25 16:32:00,86.1,56.0,29.76,SW,231,4.0,4.0,36,0.00,,---,0.00,VWS V14.01,2013-06-25 20:32:00,
2013-06-25 16:37:00,86.3,56.2,29.76,SW,226,5.0,10.0,36,0.00,,---,0.00,VWS V14.01,2013-06-25 20:37:00,
2013-06-25 16:42:00,86.5,56.4,29.76,South,173,5.0,10.0,36,0.00,,---,0.00,VWS V14.01,2013-06-25 20:42:00,
2013-06-25 16:47:00,86.7,56.6,29.76,SSW,200,2.0,10.0,36,0.00,,---,0.00,VWS V14.01,2013-06-25 20:47:00,
2013-06-25 16:52:00,87.0,56.8,29.76,SW,229,5.0,10.0,36,0.00,,---,0.00,VWS V14.01,2013-06-25 20:52:00,
2013-06-25 17:00:00,85.5,55.5,29.78,SSW,208,9.0,12.0,36,0.00,,---,0.00,VWS V14.01,2013-06-25 21:00:00,
2013-06-25 17:30:00,86.1,56.0,29.76,SW,233,3.0,11.0,36,0.00,,---,0.00,VWS V14.01,2013-06-25 21:30:00,
2013-06-25 18:00:00,86.5,56.4,29.76,SW,225,4.0,10.0,36,0.00,,---,0.00,VWS V14.01,2013-06-25 22:00:00,
2013-06-25 18:30:00,86.1,56.0,29.75,SW,225,5.0,14.0,36,0.00,,---,0.00,VWS V14.01,2013-06-25 22:30:00,
2013-06-25 19:00:00,84.9,55.8,29.75,SW,225,5.0,15.0,37,0.00,,---,0.00,VWS V14.01,2013-06-25 23:00:00,
2013-06-25 19:30:00,82.8,53.9,29.74,SW,225,4.0,12.0,37,0.00,,---,0.00,VWS V14.01,2013-06-25 23:30:00,
2013-06-25 20:00:00,81.8,53.0,29.73,SW,225,3.0,11.0,37,0.00,,---,0.00,VWS V14.01,2013-06-26 00:00:00,
2013-06-25 20:30:00,81.1,52.4,29.73,SW,225,4.0,14.0,37,0.00,,---,0.00,VWS V14.01,2013-06-26 00:30:00,
2013-06-25 21:00:00,80.3,51.7,29.72,SW,225,3.0,11.0,37,0.00,,---,0.00,VWS V14.01,2013-06-26 01:00:00,
2013-06-25 21:30:00,78.8,50.4,29.72,SW,225,2.0,11.0,37,0.00,,---,0.00,VWS V14.01,2013-06-26 01:30:00,
2013-06-25 22:00:00,77.6,49.3,29.72,WSW,248,0.0,4.0,37,0.00,,---,0.00,VWS V14.01,2013-06-26 02:00:00,
2013-06-25 22:30:00,77.4,49.1,29.73,WSW,248,0.0,4.0,37,0.00,,---,0.00,VWS V14.01,2013-06-26 02:30:00,
2013-06-25 23:00:00,77.4,49.1,29.74,WSW,248,1.0,3.0,37,0.00,,---,0.00,VWS V14.01,2013-06-26 03:00:00,
2013-06-25 23:30:00,76.5,49.0,29.74,WSW,248,0.0,1.0,38,0.00,,---,0.00,VWS V14.01,2013-06-26 03:30:00,